createdAt,value
2018-09-17T00:00:22.116Z,98736.69
2018-09-17T00:02:50.658Z,98741.38
2018-09-17T00:05:18.898Z,98738.59
2018-09-17T00:07:47.391Z,98735.06
2018-09-17T00:10:15.841Z,98732.36
2018-09-17T00:12:44.504Z,98728.63
2018-09-17T00:15:12.865Z,98734.46
2018-09-17T00:17:41.262Z,98732.99
2018-09-17T00:20:09.556Z,98722.69
2018-09-17T00:22:37.927Z,98728.62
2018-09-17T00:25:06.421Z,98722.53
2018-09-17T00:27:34.919Z,98726.81
2018-09-17T00:30:03.341Z,98727.63
2018-09-17T00:32:31.720Z,98727.03
2018-09-17T00:35:00.077Z,98727.81
2018-09-17T00:37:28.665Z,98726.60
2018-09-17T00:39:56.993Z,98720.84
2018-09-17T00:42:25.496Z,98721.11
2018-09-17T00:44:53.865Z,98714.11
2018-09-17T00:47:22.145Z,98718.91
2018-09-17T00:49:50.530Z,98713.81
2018-09-17T00:52:18.872Z,98713.55
2018-09-17T00:54:47.241Z,98711.80
2018-09-17T00:57:15.525Z,98716.04
2018-09-17T00:59:43.903Z,98713.30
2018-09-17T01:02:12.207Z,98710.94
2018-09-17T01:04:40.672Z,98712.48
2018-09-17T01:07:09.050Z,98710.16
2018-09-17T01:09:43.263Z,98707.76
2018-09-17T01:12:12.918Z,98713.72
2018-09-17T01:14:41.350Z,98713.67
2018-09-17T01:17:09.606Z,98715.95
2018-09-17T01:19:37.994Z,98714.52
2018-09-17T01:22:06.404Z,98712.80
2018-09-17T01:24:34.707Z,98719.11
2018-09-17T01:27:03.872Z,98723.27
2018-09-17T01:29:32.332Z,98723.38
2018-09-17T01:32:00.777Z,98715.40
2018-09-17T01:34:29.031Z,98724.23
2018-09-17T01:36:57.437Z,98718.27
2018-09-17T01:39:25.948Z,98720.66
2018-09-17T01:41:54.317Z,98727.25
2018-09-17T01:44:22.659Z,98727.77
2018-09-17T01:46:50.996Z,98712.61
2018-09-17T01:49:19.308Z,98718.25
2018-09-17T01:51:47.666Z,98720.84
2018-09-17T01:54:15.965Z,98718.39
2018-09-17T01:56:44.289Z,98720.64
2018-09-17T01:59:12.682Z,98720.84
2018-09-17T02:01:40.964Z,98723.32
2018-09-17T02:04:09.299Z,98715.53
2018-09-17T02:06:37.599Z,98718.39
2018-09-17T02:09:07.222Z,98716.94
2018-09-17T02:11:35.440Z,98713.84
2018-09-17T02:14:03.768Z,98720.05
2018-09-17T02:16:32.076Z,98726.00
2018-09-17T02:19:00.418Z,98728.67
2018-09-17T02:21:28.684Z,98733.01
2018-09-17T02:23:56.962Z,98725.77
2018-09-17T02:26:25.325Z,98725.03
2018-09-17T02:28:53.632Z,98729.82
2018-09-17T02:31:21.972Z,98726.34
2018-09-17T02:33:50.290Z,98730.41
2018-09-17T02:36:18.564Z,98727.02
2018-09-17T02:38:46.873Z,98728.48
2018-09-17T02:41:15.233Z,98732.53
2018-09-17T02:43:43.655Z,98737.97
2018-09-17T02:46:12.067Z,98745.72
2018-09-17T02:48:40.461Z,98743.53
2018-09-17T02:51:08.781Z,98744.51
2018-09-17T02:53:37.191Z,98737.97
2018-09-17T02:56:05.440Z,98732.27
2018-09-17T02:58:33.742Z,98734.66
2018-09-17T03:01:02.098Z,98729.55
2018-09-17T03:03:30.369Z,98733.75
2018-09-17T03:05:58.703Z,98731.94
2018-09-17T03:08:27.012Z,98737.20
2018-09-17T03:10:55.387Z,98738.11
2018-09-17T03:13:23.723Z,98733.77
2018-09-17T03:15:53.975Z,98734.92
2018-09-17T03:18:34.884Z,98732.50
2018-09-17T03:21:04.567Z,98746.45
2018-09-17T03:23:34.757Z,98739.61
2018-09-17T03:26:03.852Z,98738.96
2018-09-17T03:28:32.338Z,98746.31
2018-09-17T03:31:00.612Z,98748.64
2018-09-17T03:33:29.126Z,98740.20
2018-09-17T03:35:57.419Z,98752.48
2018-09-17T03:38:34.995Z,98756.41
2018-09-17T03:41:05.508Z,98758.86
2018-09-17T03:43:34.768Z,98763.47
2018-09-17T03:46:03.175Z,98766.72
2018-09-17T03:48:32.948Z,98769.84
2018-09-17T03:51:02.209Z,98775.43
2018-09-17T03:53:31.014Z,98768.59
2018-09-17T03:55:59.866Z,98770.94
2018-09-17T03:58:28.756Z,98764.84
2018-09-17T04:00:57.265Z,98765.52
2018-09-17T04:03:25.615Z,98767.66
2018-09-17T04:05:53.935Z,98775.05
2018-09-17T04:08:22.334Z,98776.64
2018-09-17T04:10:50.629Z,98775.67
2018-09-17T04:13:19.069Z,98783.86
2018-09-17T04:15:47.611Z,98781.41
2018-09-17T04:18:16.097Z,98788.91
2018-09-17T04:20:44.462Z,98788.46
2018-09-17T04:23:12.839Z,98792.36
2018-09-17T04:25:41.181Z,98793.05
2018-09-17T04:28:09.522Z,98798.02
2018-09-17T04:30:37.933Z,98790.89
2018-09-17T04:33:07.349Z,98795.73
2018-09-17T04:35:35.634Z,98794.72
2018-09-17T04:38:03.984Z,98796.57
2018-09-17T04:40:32.253Z,98796.98
2018-09-17T04:43:00.643Z,98792.22
2018-09-17T04:45:28.982Z,98790.72
2018-09-17T04:47:57.341Z,98795.23
2018-09-17T04:50:25.663Z,98797.41
2018-09-17T04:52:53.990Z,98792.55
2018-09-17T04:55:22.380Z,98790.62
2018-09-17T04:57:50.749Z,98793.41
2018-09-17T05:00:19.111Z,98788.84
2018-09-17T05:02:47.540Z,98790.20
2018-09-17T05:05:15.807Z,98794.35
2018-09-17T05:07:44.137Z,98793.97
2018-09-17T05:10:12.437Z,98789.09
2018-09-17T05:12:40.729Z,98790.80
2018-09-17T05:15:09.047Z,98795.59
2018-09-17T05:17:37.375Z,98799.56
2018-09-17T05:20:05.707Z,98802.09
2018-09-17T05:22:34.102Z,98805.52
2018-09-17T05:25:03.032Z,98800.73
2018-09-17T05:27:31.325Z,98804.00
2018-09-17T05:29:59.714Z,98801.00
2018-09-17T05:32:27.999Z,98800.34
2018-09-17T05:34:57.237Z,98803.53
2018-09-17T05:37:25.659Z,98804.73
2018-09-17T05:39:53.991Z,98810.56
2018-09-17T05:42:22.393Z,98809.69
2018-09-17T05:44:50.963Z,98809.86
2018-09-17T05:47:19.216Z,98806.47
2018-09-17T05:49:47.562Z,98817.30
2018-09-17T05:52:15.997Z,98816.37
2018-09-17T05:54:44.290Z,98819.69
2018-09-17T05:57:12.601Z,98816.39
2018-09-17T05:59:40.957Z,98819.39
2018-09-17T06:02:09.354Z,98813.78
2018-09-17T06:04:37.700Z,98817.88
2018-09-17T06:07:06.100Z,98813.23
2018-09-17T06:09:34.382Z,98815.42
2018-09-17T06:12:02.942Z,98819.34
2018-09-17T06:14:31.399Z,98812.77
2018-09-17T06:16:59.776Z,98807.15
2018-09-17T06:19:28.124Z,98811.58
2018-09-17T06:21:56.808Z,98811.37
2018-09-17T06:24:25.165Z,98816.05
2018-09-17T06:26:53.590Z,98811.44
2018-09-17T06:29:22.014Z,98811.17
2018-09-17T06:31:50.260Z,98814.19
2018-09-17T06:34:18.717Z,98814.29
2018-09-17T06:36:47.086Z,98822.23
2018-09-17T06:39:15.664Z,98818.44
2018-09-17T06:41:44.050Z,98817.36
2018-09-17T06:44:12.562Z,98820.63
2018-09-17T06:46:40.977Z,98819.05
2018-09-17T06:49:09.267Z,98819.05
2018-09-17T06:51:37.563Z,98813.06
2018-09-17T06:54:05.881Z,98818.25
2018-09-17T06:56:34.210Z,98819.02
2018-09-17T06:59:02.714Z,98815.34
2018-09-17T07:01:31.069Z,98818.38
2018-09-17T07:03:59.393Z,98819.81
2018-09-17T07:06:27.734Z,98826.84
2018-09-17T07:08:56.058Z,98823.52
2018-09-17T07:11:24.376Z,98823.03
2018-09-17T07:13:52.871Z,98828.41
2018-09-17T07:16:21.193Z,98831.27
2018-09-17T07:18:49.972Z,98835.50
2018-09-17T07:21:18.308Z,98830.58
2018-09-17T07:23:47.506Z,98831.94
2018-09-17T07:26:15.870Z,98839.31
2018-09-17T07:28:44.209Z,98835.93
2018-09-17T07:31:12.465Z,98835.33
2018-09-17T07:33:40.765Z,98833.98
2018-09-17T07:36:09.220Z,98831.34
2018-09-17T07:38:37.520Z,98833.95
2018-09-17T07:41:05.912Z,98832.02
2018-09-17T07:43:34.242Z,98825.73
2018-09-17T07:46:02.621Z,98820.27
2018-09-17T07:48:30.940Z,98822.34
2018-09-17T07:50:59.319Z,98821.61
2018-09-17T07:53:27.675Z,98818.31
2018-09-17T07:55:55.952Z,98823.02
2018-09-17T07:58:24.251Z,98821.88
2018-09-17T08:00:52.605Z,98816.91
2018-09-17T08:03:21.092Z,98827.22
2018-09-17T08:05:49.471Z,98830.58
2018-09-17T08:08:17.941Z,98822.75
2018-09-17T08:10:46.425Z,98821.54
2018-09-17T08:13:14.800Z,98819.74
2018-09-17T08:15:43.169Z,98822.31
2018-09-17T08:18:11.480Z,98817.05
2018-09-17T08:20:39.869Z,98814.81
2018-09-17T08:23:08.224Z,98820.10
2018-09-17T08:25:36.568Z,98822.18
2018-09-17T08:28:05.192Z,98813.86
2018-09-17T08:30:33.529Z,98817.52
2018-09-17T08:33:01.998Z,98818.11
2018-09-17T08:35:30.301Z,98821.09
2018-09-17T08:37:58.616Z,98816.96
2018-09-17T08:40:26.900Z,98813.45
2018-09-17T08:42:56.161Z,98812.21
2018-09-17T08:45:24.469Z,98816.62
2018-09-17T08:47:52.780Z,98812.30
2018-09-17T08:50:21.171Z,98808.11
2018-09-17T08:52:49.488Z,98804.02
2018-09-17T08:55:22.963Z,98809.70
2018-09-17T08:57:56.421Z,98801.83
2018-09-17T09:00:30.089Z,98799.25
2018-09-17T09:03:03.555Z,98795.52
2018-09-17T09:05:39.051Z,98804.53
2018-09-17T09:08:08.196Z,98805.80
2018-09-17T09:10:42.455Z,98800.11
2018-09-17T09:13:15.985Z,98806.56
2018-09-17T09:15:44.738Z,98794.48
2018-09-17T09:18:13.074Z,98796.58
2018-09-17T09:20:41.392Z,98790.56
2018-09-17T09:23:09.764Z,98783.94
2018-09-17T09:25:38.115Z,98780.16
2018-09-17T09:28:06.440Z,98777.55
2018-09-17T09:30:34.776Z,98774.91
2018-09-17T09:33:03.096Z,98778.38
2018-09-17T09:35:31.459Z,98769.92
2018-09-17T09:37:59.840Z,98772.61
2018-09-17T09:40:28.329Z,98765.01
2018-09-17T09:42:56.644Z,98758.02
2018-09-17T09:45:25.536Z,98760.52
2018-09-17T09:47:54.557Z,98762.02
2018-09-17T09:50:22.877Z,98763.92
2018-09-17T09:52:51.315Z,98762.34
2018-09-17T09:55:19.559Z,98769.13
2018-09-17T09:57:47.931Z,98759.50
2018-09-17T10:00:21.680Z,98753.64
2018-09-17T10:02:55.354Z,98754.29
2018-09-17T10:05:23.723Z,98752.75
2018-09-17T10:07:52.571Z,98750.09
2018-09-17T10:10:26.270Z,98750.72
2018-09-17T10:12:59.942Z,98743.84
2018-09-17T10:15:33.683Z,98747.50
2018-09-17T10:18:07.077Z,98743.30
2018-09-17T10:20:35.453Z,98748.64
2018-09-17T10:23:04.233Z,98746.18
2018-09-17T10:25:32.525Z,98744.52
2018-09-17T10:28:00.802Z,98747.88
2018-09-17T10:30:29.152Z,98735.06
2018-09-17T10:32:57.492Z,98736.54
2018-09-17T10:35:25.861Z,98731.18
2018-09-17T10:37:54.165Z,98731.73
2018-09-17T10:40:22.684Z,98729.48
2018-09-17T10:42:51.182Z,98720.00
2018-09-17T10:45:19.695Z,98721.83
2018-09-17T10:47:47.977Z,98726.84
2018-09-17T10:50:16.276Z,98724.06
2018-09-17T10:52:44.636Z,98722.43
2018-09-17T10:55:12.924Z,98715.45
2018-09-17T10:57:41.314Z,98715.13
2018-09-17T11:00:09.837Z,98715.76
2018-09-17T11:02:38.142Z,98713.44
2018-09-17T11:05:06.450Z,98710.89
2018-09-17T11:07:35.016Z,98708.25
2018-09-17T11:10:03.330Z,98709.53
2018-09-17T11:12:31.614Z,98706.87
2018-09-17T11:15:00.027Z,98711.71
2018-09-17T11:17:29.209Z,98707.15
2018-09-17T11:19:58.051Z,98707.19
2018-09-17T11:22:26.744Z,98702.84
2018-09-17T11:24:55.127Z,98700.78
2018-09-17T11:27:23.545Z,98700.78
2018-09-17T11:29:51.898Z,98699.72
2018-09-17T11:32:20.790Z,98694.12
2018-09-17T11:34:49.391Z,98691.38
2018-09-17T11:37:17.702Z,98688.88
2018-09-17T11:39:46.139Z,98679.91
2018-09-17T11:42:14.532Z,98678.73
2018-09-17T11:44:42.871Z,98677.23
2018-09-17T11:47:11.207Z,98673.31
2018-09-17T11:49:39.622Z,98677.30
2018-09-17T11:52:07.978Z,98675.36
2018-09-17T11:54:36.255Z,98672.86
2018-09-17T11:57:04.631Z,98666.88
2018-09-17T11:59:33.153Z,98661.95
2018-09-17T12:02:04.322Z,98660.33
2018-09-17T12:04:38.043Z,98647.20
2018-09-17T12:08:10.530Z,98645.78
2018-09-17T12:10:38.810Z,98643.16
2018-09-17T12:13:07.154Z,98639.51
2018-09-17T12:15:39.868Z,98641.11
2018-09-17T12:18:08.835Z,98631.81
2018-09-17T12:20:37.809Z,98630.75
2018-09-17T12:23:06.739Z,98631.02
2018-09-17T12:25:35.523Z,98628.64
2018-09-17T12:28:03.891Z,98627.12
2018-09-17T12:30:32.209Z,98625.00
2018-09-17T12:33:00.793Z,98627.38
2018-09-17T12:35:29.307Z,98621.44
2018-09-17T12:37:57.822Z,98619.12
2018-09-17T12:40:26.921Z,98619.83
2018-09-17T12:42:55.463Z,98612.31
2018-09-17T12:45:24.712Z,98613.56
2018-09-17T12:47:53.744Z,98607.24
2018-09-17T12:50:22.167Z,98598.78
2018-09-17T12:52:50.522Z,98600.05
2018-09-17T12:55:18.995Z,98591.17
2018-09-17T12:57:47.443Z,98598.53
2018-09-17T13:00:15.788Z,98584.57
2018-09-17T13:02:44.183Z,98586.72
2018-09-17T13:05:12.481Z,98579.85
2018-09-17T13:07:41.129Z,98569.83
2018-09-17T13:10:09.675Z,98564.87
2018-09-17T13:12:37.988Z,98563.70
2018-09-17T13:15:07.059Z,98559.91
2018-09-17T13:17:35.343Z,98565.73
2018-09-17T13:20:03.791Z,98556.86
2018-09-17T13:22:32.449Z,98556.02
2018-09-17T13:25:00.847Z,98555.05
2018-09-17T13:27:30.253Z,98553.42
2018-09-17T13:29:58.525Z,98558.49
2018-09-17T13:32:26.826Z,98557.64
2018-09-17T13:34:55.214Z,98553.01
2018-09-17T13:37:24.128Z,98551.77
2018-09-17T13:39:52.452Z,98550.94
2018-09-17T13:42:21.220Z,98548.88
2018-09-17T13:44:49.540Z,98550.50
2018-09-17T13:47:17.855Z,98547.20
2018-09-17T13:49:46.118Z,98540.72
2018-09-17T13:52:14.567Z,98541.64
2018-09-17T13:54:42.853Z,98538.86
2018-09-17T13:57:11.219Z,98534.41
2018-09-17T13:59:39.709Z,98531.70
2018-09-17T14:02:08.061Z,98531.06
2018-09-17T14:04:36.465Z,98525.59
2018-09-17T14:07:04.958Z,98526.59
2018-09-17T14:09:33.255Z,98518.94
2018-09-17T14:12:01.652Z,98520.21
2018-09-17T14:14:30.009Z,98513.16
2018-09-17T14:16:58.334Z,98510.41
2018-09-17T14:19:26.607Z,98507.41
2018-09-17T14:21:55.032Z,98512.02
2018-09-17T14:24:23.961Z,98508.98
2018-09-17T14:26:52.253Z,98495.92
2018-09-17T14:29:20.679Z,98502.55
2018-09-17T14:31:54.412Z,98499.52
2018-09-17T14:34:22.930Z,98498.52
2018-09-17T14:36:51.266Z,98499.86
2018-09-17T14:39:19.562Z,98493.78
2018-09-17T14:41:47.874Z,98492.84
2018-09-17T14:44:16.184Z,98489.12
2018-09-17T14:46:44.455Z,98485.61
2018-09-17T14:49:12.774Z,98482.74
2018-09-17T14:51:41.033Z,98479.52
2018-09-17T14:54:09.324Z,98478.19
2018-09-17T14:56:37.627Z,98479.60
2018-09-17T14:59:06.032Z,98475.41
2018-09-17T15:01:35.264Z,98475.40
2018-09-17T15:04:03.497Z,98474.52
2018-09-17T15:06:31.916Z,98473.50
2018-09-17T15:09:00.269Z,98470.33
2018-09-17T15:11:29.027Z,98469.13
2018-09-17T15:13:57.371Z,98466.00
2018-09-17T15:16:25.796Z,98473.28
2018-09-17T15:18:54.082Z,98467.94
2018-09-17T15:21:22.541Z,98471.21
2018-09-17T15:23:50.797Z,98462.80
2018-09-17T15:26:19.238Z,98461.88
2018-09-17T15:28:47.487Z,98458.16
2018-09-17T15:31:15.892Z,98454.86
2018-09-17T15:33:44.179Z,98457.79
2018-09-17T15:36:13.443Z,98451.14
2018-09-17T15:38:42.179Z,98446.87
2018-09-17T15:41:10.861Z,98440.19
2018-09-17T15:43:39.256Z,98438.30
2018-09-17T15:46:07.586Z,98436.84
2018-09-17T15:48:36.396Z,98437.55
2018-09-17T15:51:04.887Z,98438.05
2018-09-17T15:53:33.935Z,98431.72
2018-09-17T15:56:02.253Z,98427.91
2018-09-17T15:58:31.344Z,98426.64
2018-09-17T16:00:59.744Z,98426.92
2018-09-17T16:03:28.037Z,98425.29
2018-09-17T16:05:56.499Z,98423.72
2018-09-17T16:08:24.913Z,98425.45
2018-09-17T16:10:53.456Z,98422.36
2018-09-17T16:13:22.134Z,98424.44
2018-09-17T16:15:50.561Z,98421.38
2018-09-17T16:18:19.423Z,98419.17
2018-09-17T16:20:48.046Z,98419.83
2018-09-17T16:23:16.466Z,98421.31
2018-09-17T16:25:45.297Z,98425.63
2018-09-17T16:28:13.649Z,98421.78
2018-09-17T16:30:41.944Z,98414.09
2018-09-17T16:33:10.319Z,98417.11
2018-09-17T16:35:39.490Z,98415.20
2018-09-17T16:38:07.889Z,98412.78
2018-09-17T16:40:36.182Z,98416.99
2018-09-17T16:43:04.536Z,98416.05
2018-09-17T16:45:32.850Z,98412.31
2018-09-17T16:48:01.406Z,98413.25
2018-09-17T16:50:30.187Z,98406.88
2018-09-17T16:52:58.601Z,98405.33
2018-09-17T16:55:26.870Z,98410.16
2018-09-17T16:57:55.429Z,98410.66
2018-09-17T17:00:23.767Z,98405.48
2018-09-17T17:02:52.272Z,98406.57
2018-09-17T17:05:20.877Z,98407.64
2018-09-17T17:07:49.119Z,98401.52
2018-09-17T17:10:17.773Z,98403.34
2018-09-17T17:12:46.093Z,98401.90
2018-09-17T17:15:20.853Z,98397.94
2018-09-17T17:17:49.186Z,98400.77
2018-09-17T17:20:17.439Z,98402.60
2018-09-17T17:22:45.767Z,98393.56
2018-09-17T17:25:14.191Z,98396.44
2018-09-17T17:27:42.625Z,98391.09
2018-09-17T17:30:10.950Z,98395.84
2018-09-17T17:32:40.399Z,98398.28
2018-09-17T17:35:08.738Z,98398.94
2018-09-17T17:37:37.026Z,98400.07
2018-09-17T17:40:06.347Z,98401.41
2018-09-17T17:42:34.636Z,98401.02
2018-09-17T17:45:03.010Z,98398.23
2018-09-17T17:47:31.347Z,98397.28
2018-09-17T17:49:59.682Z,98395.31
2018-09-17T17:52:27.994Z,98403.66
2018-09-17T17:54:56.351Z,98402.34
2018-09-17T17:57:24.629Z,98405.04
2018-09-17T17:59:53.006Z,98409.45
2018-09-17T18:02:24.676Z,98411.68
2018-09-17T18:04:55.416Z,98413.52
2018-09-17T18:07:23.831Z,98414.89
2018-09-17T18:09:52.141Z,98411.82
2018-09-17T18:12:20.440Z,98414.34
2018-09-17T18:14:49.066Z,98412.14
2018-09-17T18:17:17.371Z,98415.14
2018-09-17T18:19:46.008Z,98423.03
2018-09-17T18:22:14.298Z,98419.32
2018-09-17T18:24:43.649Z,98414.78
2018-09-17T18:27:12.040Z,98418.26
2018-09-17T18:29:40.341Z,98421.63
2018-09-17T18:32:08.738Z,98418.58
2018-09-17T18:34:37.029Z,98423.28
2018-09-17T18:37:05.630Z,98419.02
2018-09-17T18:39:34.024Z,98425.55
2018-09-17T18:42:02.406Z,98417.61
2018-09-17T18:44:30.770Z,98427.05
2018-09-17T18:46:59.103Z,98423.14
2018-09-17T18:49:27.428Z,98426.83
2018-09-17T18:51:55.727Z,98434.52
2018-09-17T18:54:24.091Z,98428.38
2018-09-17T18:56:52.568Z,98433.57
2018-09-17T18:59:20.915Z,98434.14
2018-09-17T19:01:49.236Z,98433.99
2018-09-17T19:04:17.559Z,98433.48
2018-09-17T19:06:45.975Z,98437.66
2018-09-17T19:09:14.454Z,98430.75
2018-09-17T19:11:42.794Z,98430.73
2018-09-17T19:14:16.523Z,98425.66
2018-09-17T19:16:54.152Z,98428.98
2018-09-17T19:19:22.703Z,98427.85
2018-09-17T19:21:56.603Z,98429.37
2018-09-17T19:24:24.764Z,98421.77
2018-09-17T19:26:53.109Z,98417.27
2018-09-17T19:29:22.261Z,98424.38
2018-09-17T19:31:50.645Z,98422.84
2018-09-17T19:34:19.039Z,98426.42
2018-09-17T19:36:47.550Z,98420.78
2018-09-17T19:39:21.508Z,98425.55
2018-09-17T19:41:49.867Z,98422.66
2018-09-17T19:44:18.160Z,98426.34
2018-09-17T19:46:46.495Z,98422.94
2018-09-17T19:49:14.844Z,98428.15
2018-09-17T19:51:48.464Z,98428.96
2018-09-17T19:54:16.822Z,98431.69
2018-09-17T19:56:45.151Z,98429.89
2018-09-17T19:59:19.028Z,98434.89
2018-09-17T20:01:47.344Z,98437.08
2018-09-17T20:04:20.940Z,98437.86
2018-09-17T20:06:49.476Z,98440.00
2018-09-17T20:09:17.799Z,98429.08
2018-09-17T20:11:46.268Z,98439.35
2018-09-17T20:14:14.680Z,98431.91
2018-09-17T20:16:43.111Z,98434.90
2018-09-17T20:19:11.750Z,98430.37
2018-09-17T20:21:40.150Z,98434.52
2018-09-17T20:24:08.650Z,98426.21
2018-09-17T20:26:36.995Z,98425.72
2018-09-17T20:29:05.534Z,98426.01
2018-09-17T20:31:33.887Z,98424.63
2018-09-17T20:34:02.969Z,98421.88
2018-09-17T20:36:31.638Z,98425.56
2018-09-17T20:39:00.188Z,98424.39
2018-09-17T20:41:28.501Z,98421.94
2018-09-17T20:43:56.899Z,98417.65
2018-09-17T20:46:25.155Z,98423.58
2018-09-17T20:48:53.654Z,98415.03
2018-09-17T20:51:22.060Z,98416.57
2018-09-17T20:53:50.375Z,98420.30
2018-09-17T20:56:18.687Z,98420.97
2018-09-17T20:58:48.293Z,98418.08
2018-09-17T21:01:16.951Z,98419.53
2018-09-17T21:03:45.634Z,98415.82
2018-09-17T21:06:14.040Z,98422.78
2018-09-17T21:08:42.458Z,98413.66
2018-09-17T21:11:10.813Z,98415.40
2018-09-17T21:13:39.480Z,98413.06
2018-09-17T21:16:07.946Z,98408.87
2018-09-17T21:18:36.317Z,98406.13
2018-09-17T21:21:04.869Z,98412.11
2018-09-17T21:23:33.297Z,98405.88
2018-09-17T21:26:01.585Z,98407.28
2018-09-17T21:28:30.017Z,98408.73
2018-09-17T21:30:58.597Z,98402.17
2018-09-17T21:33:26.759Z,98396.78
2018-09-17T21:35:55.323Z,98396.38
2018-09-17T21:38:25.138Z,98397.03
2018-09-17T21:40:53.628Z,98399.08
2018-09-17T21:43:25.257Z,98397.36
2018-09-17T21:45:53.679Z,98407.37
2018-09-17T21:48:22.251Z,98406.63
2018-09-17T21:50:50.541Z,98407.16
2018-09-17T21:53:18.814Z,98398.63
2018-09-17T21:55:47.434Z,98400.41
2018-09-17T21:58:15.794Z,98399.87
2018-09-17T22:00:49.712Z,98398.16
2018-09-17T22:03:18.192Z,98406.10
2018-09-17T22:05:46.535Z,98405.19
2018-09-17T22:08:15.017Z,98400.25
2018-09-17T22:10:43.476Z,98390.44
2018-09-17T22:13:11.836Z,98398.20
2018-09-17T22:15:40.287Z,98400.43
2018-09-17T22:18:08.684Z,98399.79
2018-09-17T22:20:37.000Z,98400.16
2018-09-17T22:23:05.324Z,98398.76
2018-09-17T22:25:33.761Z,98396.43
2018-09-17T22:28:02.396Z,98392.00
2018-09-17T22:30:30.653Z,98397.17
2018-09-17T22:32:59.056Z,98389.95
2018-09-17T22:35:27.401Z,98393.33
2018-09-17T22:37:55.687Z,98394.64
2018-09-17T22:40:24.067Z,98391.13
2018-09-17T22:42:52.373Z,98392.36
2018-09-17T22:45:20.716Z,98387.76
2018-09-17T22:47:48.984Z,98390.89
2018-09-17T22:50:17.418Z,98394.96
2018-09-17T22:52:45.909Z,98384.20
2018-09-17T22:55:14.312Z,98380.50
2018-09-17T22:57:42.671Z,98382.91
2018-09-17T23:00:11.065Z,98379.64
2018-09-17T23:02:39.356Z,98384.25
2018-09-17T23:05:07.779Z,98383.64
2018-09-17T23:07:36.135Z,98378.20
2018-09-17T23:10:05.021Z,98376.87
2018-09-17T23:12:35.030Z,98378.93
2018-09-17T23:15:03.489Z,98374.83
2018-09-17T23:17:31.846Z,98380.50
2018-09-17T23:20:00.196Z,98382.44
2018-09-17T23:22:28.481Z,98376.60
2018-09-17T23:24:56.791Z,98375.55
2018-09-17T23:27:25.170Z,98378.45
2018-09-17T23:29:53.505Z,98377.64
2018-09-17T23:32:21.755Z,98374.73
2018-09-17T23:34:50.222Z,98377.87
2018-09-17T23:37:18.733Z,98379.25
2018-09-17T23:39:47.117Z,98378.88
2018-09-17T23:42:15.465Z,98379.96
2018-09-17T23:44:43.866Z,98377.52
2018-09-17T23:47:12.162Z,98378.95
2018-09-17T23:49:40.458Z,98382.27
2018-09-17T23:52:08.759Z,98379.96
2018-09-17T23:54:37.037Z,98384.83
2018-09-17T23:57:05.416Z,98381.05
2018-09-17T23:59:33.718Z,98376.94
